Terminal Aerodrome Forecast
Issued by NWS

Home | Current Version | Previous Version | Graphics & Text | Print | Product List | Glossary On
Versions: 1 2 3 4 5 6 7 8 9 10 11 12 13 14 15 16 17
000
FTUS43 KIWX 262300
TAFSBN
TAF
KSBN 262334Z 2700/2724 36008KT P6SM BKN040
     FM270400 VRB04KT P6SM BKN040
     FM271500 26008KT P6SM SCT030=

USA.gov is the U.S. government's official web portal to all federal, state and local government web resources and services.